CWB weather

Afonso Pena Airport
Curitiba, ParanĂ¡, Brazil

Public forecast

Using degrees Celsius for public forecast. Weather courtesy of forecast.io.

METAR (pilot weather report)

Retrieved 2019/07/23 23:00 UTC (35 minutes ago):

SBCT 232300Z 02005KT CAVOK 19/13 Q1023

TAF (pilot weather forecast)

Retrieved 2019/07/23 18:00 UTC (6 hours ago):

TAF SBCT 231500Z 2318/2418 35008KT CAVOK TX24/2319Z TN11/2405Z BECMG 2413/2415 33005KT RMK PEG